createdAt,value
2023-03-01T00:01:28.030Z,4.80
2023-03-01T00:04:13.224Z,4.82
2023-03-01T00:06:58.560Z,4.86
2023-03-01T00:09:46.913Z,4.89
2023-03-01T00:12:32.836Z,4.92
2023-03-01T00:15:18.461Z,4.98
2023-03-01T00:18:03.701Z,5.03
2023-03-01T00:20:54.199Z,5.13
2023-03-01T00:23:39.954Z,5.22
2023-03-01T00:26:27.161Z,5.37
2023-03-01T00:29:12.548Z,5.49
2023-03-01T00:31:58.126Z,5.56
2023-03-01T00:34:43.386Z,5.66
2023-03-01T00:37:28.895Z,5.73
2023-03-01T00:40:17.411Z,5.80
2023-03-01T00:43:04.461Z,5.84
2023-03-01T00:45:50.397Z,5.87
2023-03-01T00:48:36.183Z,5.93
2023-03-01T00:51:28.370Z,5.94
2023-03-01T00:54:15.804Z,5.96
2023-03-01T00:57:01.258Z,5.96
2023-03-01T00:59:46.530Z,5.95
2023-03-01T01:02:34.530Z,5.94
2023-03-01T01:05:21.919Z,5.91
2023-03-01T01:08:08.185Z,5.89
2023-03-01T01:10:53.702Z,5.88
2023-03-01T01:13:40.583Z,5.87
2023-03-01T01:16:29.308Z,5.85
2023-03-01T01:19:15.213Z,5.85
2023-03-01T01:22:00.847Z,5.81
2023-03-01T01:24:46.349Z,5.81
2023-03-01T01:27:31.738Z,5.79
2023-03-01T01:30:17.336Z,5.79
2023-03-01T01:33:02.828Z,5.79
2023-03-01T01:35:48.510Z,5.80
2023-03-01T01:38:35.755Z,5.78
2023-03-01T01:41:22.840Z,5.80
2023-03-01T01:44:28.798Z,5.81
2023-03-01T01:47:19.868Z,5.82
2023-03-01T01:50:05.504Z,5.83
2023-03-01T01:52:54.282Z,5.82
2023-03-01T01:55:46.299Z,5.83
2023-03-01T01:58:31.978Z,5.83
2023-03-01T02:01:17.878Z,5.85
2023-03-01T02:04:03.869Z,5.83
2023-03-01T02:06:58.469Z,5.81
2023-03-01T02:09:48.761Z,5.81
2023-03-01T02:12:35.221Z,5.77
2023-03-01T02:15:21.040Z,5.77
2023-03-01T02:18:08.453Z,5.74
2023-03-01T02:21:09.997Z,5.74
2023-03-01T02:23:58.598Z,5.76
2023-03-01T02:26:49.668Z,5.74
2023-03-01T02:29:35.124Z,5.73
2023-03-01T02:32:26.350Z,5.71
2023-03-01T02:35:15.509Z,5.73
2023-03-01T02:38:03.542Z,5.72
2023-03-01T02:40:51.207Z,5.72
2023-03-01T02:43:37.480Z,5.72
2023-03-01T02:46:26.461Z,5.71
2023-03-01T02:49:33.426Z,5.73
2023-03-01T02:52:29.804Z,5.77
2023-03-01T02:55:17.824Z,5.76
2023-03-01T02:58:04.480Z,5.78
2023-03-01T03:00:52.088Z,5.79
2023-03-01T03:03:37.293Z,5.77
2023-03-01T03:06:22.985Z,5.77
2023-03-01T03:09:09.080Z,5.79
2023-03-01T03:11:54.671Z,5.78
2023-03-01T03:14:41.204Z,5.77
2023-03-01T03:17:26.507Z,5.77
2023-03-01T03:20:13.855Z,5.76
2023-03-01T03:22:59.784Z,5.75
2023-03-01T03:25:45.022Z,5.74
2023-03-01T03:28:31.771Z,5.72
2023-03-01T03:31:17.319Z,5.70
2023-03-01T03:34:02.682Z,5.71
2023-03-01T03:36:48.137Z,5.69
2023-03-01T03:39:35.953Z,5.67
2023-03-01T03:42:23.124Z,5.65
2023-03-01T03:45:09.358Z,5.59
2023-03-01T03:47:54.687Z,5.57
2023-03-01T03:50:41.934Z,5.58
2023-03-01T03:53:29.812Z,5.59
2023-03-01T03:56:15.476Z,5.54
2023-03-01T03:59:00.721Z,5.54
2023-03-01T04:01:46.345Z,5.55
2023-03-01T04:04:31.857Z,5.51
2023-03-01T04:07:17.980Z,5.51
2023-03-01T04:10:09.501Z,5.52
2023-03-01T04:12:57.206Z,5.50
2023-03-01T04:15:44.138Z,5.48
2023-03-01T04:18:29.720Z,5.47
2023-03-01T04:21:15.160Z,5.48
2023-03-01T04:24:00.890Z,5.47
2023-03-01T04:26:46.184Z,5.48
2023-03-01T04:29:31.515Z,5.48
2023-03-01T04:32:17.780Z,5.47
2023-03-01T04:35:03.235Z,5.45
2023-03-01T04:37:48.710Z,5.45
2023-03-01T04:40:34.869Z,5.42
2023-03-01T04:43:20.379Z,5.42
2023-03-01T04:46:10.351Z,5.43
2023-03-01T04:48:56.056Z,5.42
2023-03-01T04:51:41.639Z,5.41
2023-03-01T04:54:27.289Z,5.43
2023-03-01T04:57:13.019Z,5.43
2023-03-01T04:59:58.848Z,5.44
2023-03-01T05:02:44.494Z,5.44
2023-03-01T05:05:32.818Z,5.42
2023-03-01T05:08:18.599Z,5.42
2023-03-01T05:11:04.582Z,5.45
2023-03-01T05:13:54.163Z,5.45
2023-03-01T05:16:39.523Z,5.46
2023-03-01T05:19:24.980Z,5.45
2023-03-01T05:22:10.412Z,5.44
2023-03-01T05:24:56.199Z,5.45
2023-03-01T05:27:41.411Z,5.44
2023-03-01T05:30:26.750Z,5.44
2023-03-01T05:33:15.479Z,5.43
2023-03-01T05:36:01.237Z,5.42
2023-03-01T05:38:46.674Z,5.43
2023-03-01T05:41:32.049Z,5.44
2023-03-01T05:44:17.324Z,5.46
2023-03-01T05:47:02.828Z,5.46
2023-03-01T05:49:48.108Z,5.44
2023-03-01T05:52:33.571Z,5.41
2023-03-01T05:55:21.327Z,5.40
2023-03-01T05:58:10.938Z,5.37
2023-03-01T06:00:57.325Z,5.31
2023-03-01T06:03:43.542Z,5.30
2023-03-01T06:06:29.467Z,5.29
2023-03-01T06:09:15.451Z,5.26
2023-03-01T06:12:01.057Z,5.25
2023-03-01T06:14:48.551Z,5.24
2023-03-01T06:17:38.816Z,5.24
2023-03-01T06:20:26.713Z,5.24
2023-03-01T06:23:12.068Z,5.26
2023-03-01T06:25:57.458Z,5.25
2023-03-01T06:28:42.685Z,5.29
2023-03-01T06:31:28.113Z,5.32
2023-03-01T06:34:14.670Z,5.31
2023-03-01T06:37:00.421Z,5.31
2023-03-01T06:39:45.636Z,5.31
2023-03-01T06:42:31.130Z,5.34
2023-03-01T06:45:16.836Z,5.37
2023-03-01T06:48:06.353Z,5.37
2023-03-01T06:50:51.876Z,5.36
2023-03-01T06:53:37.635Z,5.36
2023-03-01T06:56:23.052Z,5.37
2023-03-01T06:59:08.428Z,5.38
2023-03-01T07:01:54.186Z,5.41
2023-03-01T07:04:40.261Z,5.39
2023-03-01T07:07:25.971Z,5.38
2023-03-01T07:10:11.886Z,5.40
2023-03-01T07:12:58.825Z,5.41
2023-03-01T07:15:44.422Z,5.42
2023-03-01T07:18:29.836Z,5.44
2023-03-01T07:21:16.278Z,5.44
2023-03-01T07:24:01.864Z,5.45
2023-03-01T07:26:51.326Z,5.46
2023-03-01T07:29:39.698Z,5.49
2023-03-01T07:32:25.229Z,5.49
2023-03-01T07:35:10.542Z,5.48
2023-03-01T07:37:56.181Z,5.49
2023-03-01T07:40:41.645Z,5.51
2023-03-01T07:43:28.169Z,5.54
2023-03-01T07:46:13.842Z,5.55
2023-03-01T07:48:59.380Z,5.54
2023-03-01T07:51:44.783Z,5.56
2023-03-01T07:54:30.166Z,5.59
2023-03-01T07:57:15.777Z,5.59
2023-03-01T08:00:01.307Z,5.60
2023-03-01T08:03:01.848Z,5.62
2023-03-01T08:05:47.412Z,5.64
2023-03-01T08:08:32.817Z,5.60
2023-03-01T08:11:18.406Z,5.60
2023-03-01T08:14:03.797Z,5.61
2023-03-01T08:16:52.799Z,5.62
2023-03-01T08:19:38.090Z,5.62
2023-03-01T08:22:23.411Z,5.64
2023-03-01T08:25:09.515Z,5.66
2023-03-01T08:27:55.264Z,5.68
2023-03-01T08:30:40.751Z,5.67
2023-03-01T08:33:26.271Z,5.69
2023-03-01T08:36:11.990Z,5.69
2023-03-01T08:38:57.916Z,5.68
2023-03-01T08:41:43.700Z,5.70
2023-03-01T08:44:28.910Z,5.69
2023-03-01T08:47:14.974Z,5.76
2023-03-01T08:50:01.411Z,5.80
2023-03-01T08:52:46.778Z,5.83
2023-03-01T08:55:32.653Z,5.87
2023-03-01T08:58:18.349Z,5.94
2023-03-01T09:01:16.098Z,5.99
2023-03-01T09:04:01.434Z,6.03
2023-03-01T09:06:47.283Z,6.07
2023-03-01T09:09:32.521Z,6.07
2023-03-01T09:12:17.722Z,6.09
2023-03-01T09:15:03.429Z,6.06
2023-03-01T09:17:48.859Z,6.09
2023-03-01T09:20:34.233Z,6.09
2023-03-01T09:23:19.589Z,6.11
2023-03-01T09:26:05.197Z,6.12
2023-03-01T09:28:54.448Z,6.18
2023-03-01T09:31:40.253Z,6.19
2023-03-01T09:34:25.816Z,6.25
2023-03-01T09:37:11.294Z,6.17
2023-03-01T09:39:56.625Z,6.23
2023-03-01T09:42:51.516Z,6.25
2023-03-01T09:45:44.381Z,6.31
2023-03-01T09:48:38.081Z,6.33
2023-03-01T09:51:36.062Z,6.38
2023-03-01T09:54:21.771Z,6.46
2023-03-01T09:57:33.543Z,6.49
2023-03-01T10:00:27.735Z,6.51
2023-03-01T10:03:19.189Z,6.51
2023-03-01T10:06:24.101Z,6.53
2023-03-01T10:09:17.354Z,6.32
2023-03-01T10:12:05.904Z,6.17
2023-03-01T10:15:03.755Z,6.14
2023-03-01T10:18:04.316Z,6.16
2023-03-01T10:21:22.582Z,6.12
2023-03-01T10:24:22.768Z,6.14
2023-03-01T10:27:18.805Z,6.16
2023-03-01T10:30:21.081Z,6.21
2023-03-01T10:33:21.573Z,6.30
2023-03-01T10:36:07.560Z,6.41
2023-03-01T10:38:58.002Z,6.54
2023-03-01T10:42:05.586Z,6.70
2023-03-01T10:44:51.135Z,6.72
2023-03-01T10:47:36.511Z,6.83
2023-03-01T10:50:23.924Z,6.75
2023-03-01T10:53:41.302Z,6.63
2023-03-01T10:56:26.701Z,6.54
2023-03-01T10:59:27.032Z,6.60
2023-03-01T11:02:30.498Z,6.83
2023-03-01T11:05:20.642Z,6.91
2023-03-01T11:08:06.124Z,7.03
2023-03-01T11:10:51.636Z,7.28
2023-03-01T11:13:57.408Z,7.52
2023-03-01T11:16:45.610Z,7.52
2023-03-01T11:19:31.654Z,7.60
2023-03-01T11:22:23.620Z,7.55
2023-03-01T11:25:14.505Z,7.65
2023-03-01T11:28:04.193Z,7.72
2023-03-01T11:31:09.230Z,7.80
2023-03-01T11:34:12.954Z,7.92
2023-03-01T11:37:03.388Z,7.85
2023-03-01T11:39:55.870Z,7.87
2023-03-01T11:42:58.020Z,7.92
2023-03-01T11:46:23.839Z,7.76
2023-03-01T11:49:28.157Z,7.66
2023-03-01T11:52:25.980Z,7.71
2023-03-01T11:55:14.442Z,7.91
2023-03-01T11:58:30.576Z,8.07
2023-03-01T12:01:33.999Z,8.22
2023-03-01T12:04:22.306Z,8.28
2023-03-01T12:07:25.031Z,8.29
2023-03-01T12:10:19.525Z,8.14
2023-03-01T12:13:39.618Z,7.99
2023-03-01T12:16:40.752Z,8.04
2023-03-01T12:19:44.252Z,8.10
2023-03-01T12:22:36.025Z,8.17
2023-03-01T12:25:21.457Z,8.18
2023-03-01T12:28:28.428Z,8.23
2023-03-01T12:31:38.503Z,8.27
2023-03-01T12:34:50.648Z,8.24
2023-03-01T12:38:07.680Z,8.18
2023-03-01T12:41:02.517Z,8.04
2023-03-01T12:44:06.538Z,7.92
2023-03-01T12:47:11.947Z,7.83
2023-03-01T12:50:04.010Z,8.02
2023-03-01T12:52:54.230Z,8.29
2023-03-01T12:55:43.832Z,8.53
2023-03-01T12:58:47.251Z,8.60
2023-03-01T13:01:54.367Z,8.70
2023-03-01T13:05:05.111Z,8.46
2023-03-01T13:08:15.905Z,8.23
2023-03-01T13:11:06.768Z,8.06
2023-03-01T13:13:54.225Z,8.11
2023-03-01T13:16:40.913Z,8.20
2023-03-01T13:19:30.338Z,7.95
2023-03-01T13:22:32.753Z,7.92
2023-03-01T13:25:20.593Z,8.06
2023-03-01T13:28:37.362Z,8.04
2023-03-01T13:31:26.209Z,8.37
2023-03-01T13:34:42.023Z,8.57
2023-03-01T13:37:30.698Z,8.79
2023-03-01T13:40:23.608Z,9.07
2023-03-01T13:43:39.254Z,9.22
2023-03-01T13:46:25.535Z,9.02
2023-03-01T13:49:20.226Z,8.95
2023-03-01T13:52:06.874Z,8.76
2023-03-01T13:54:54.141Z,8.59
2023-03-01T13:57:42.198Z,8.40
2023-03-01T14:00:35.827Z,8.21
2023-03-01T14:03:21.388Z,8.13
2023-03-01T14:06:31.306Z,8.15
2023-03-01T14:09:28.563Z,8.21
2023-03-01T14:12:19.349Z,8.29
2023-03-01T14:15:17.373Z,8.18
2023-03-01T14:18:12.182Z,7.91
2023-03-01T14:20:58.417Z,7.92
2023-03-01T14:23:44.127Z,7.91
2023-03-01T14:26:32.925Z,7.98
2023-03-01T14:29:35.272Z,8.19
2023-03-01T14:32:25.156Z,8.20
2023-03-01T14:35:32.358Z,8.18
2023-03-01T14:38:23.585Z,8.30
2023-03-01T14:41:19.669Z,8.28
2023-03-01T14:44:12.523Z,8.19
2023-03-01T14:46:58.476Z,8.21
2023-03-01T14:49:44.615Z,8.21
2023-03-01T14:52:37.059Z,8.21
2023-03-01T14:55:34.113Z,8.17
2023-03-01T14:58:24.081Z,8.25
2023-03-01T15:01:15.884Z,8.27
2023-03-01T15:04:02.730Z,8.23
2023-03-01T15:06:52.365Z,8.12
2023-03-01T15:09:38.441Z,8.13
2023-03-01T15:12:30.123Z,8.13
2023-03-01T15:15:23.232Z,8.03
2023-03-01T15:18:27.847Z,8.16
2023-03-01T15:21:19.612Z,8.54
2023-03-01T15:24:23.164Z,8.88
2023-03-01T15:27:23.928Z,9.10
2023-03-01T15:30:20.382Z,9.18
2023-03-01T15:33:30.555Z,9.13
2023-03-01T15:36:31.742Z,8.84
2023-03-01T15:39:44.415Z,8.58
2023-03-01T15:42:29.831Z,8.34
2023-03-01T15:45:18.186Z,8.16
2023-03-01T15:48:18.548Z,8.02
2023-03-01T15:51:04.357Z,8.03
2023-03-01T15:53:54.750Z,7.95
2023-03-01T15:56:40.322Z,8.08
2023-03-01T15:59:25.750Z,8.42
2023-03-01T16:02:13.743Z,8.61
2023-03-01T16:04:59.231Z,8.92
2023-03-01T16:07:44.554Z,9.09
2023-03-01T16:10:31.181Z,9.01
2023-03-01T16:13:16.792Z,8.88
2023-03-01T16:16:02.158Z,8.44
2023-03-01T16:18:48.110Z,8.02
2023-03-01T16:21:33.827Z,7.93
2023-03-01T16:24:19.736Z,7.89
2023-03-01T16:27:05.426Z,7.91
2023-03-01T16:29:50.764Z,8.15
2023-03-01T16:32:44.310Z,8.57
2023-03-01T16:35:30.266Z,8.56
2023-03-01T16:38:16.256Z,8.33
2023-03-01T16:41:01.748Z,8.10
2023-03-01T16:43:47.824Z,7.92
2023-03-01T16:46:33.740Z,7.67
2023-03-01T16:49:19.434Z,7.55
2023-03-01T16:52:05.056Z,7.51
2023-03-01T16:54:50.394Z,7.49
2023-03-01T16:57:37.886Z,7.43
2023-03-01T17:00:24.080Z,7.37
2023-03-01T17:03:09.419Z,7.21
2023-03-01T17:05:54.808Z,7.07
2023-03-01T17:08:41.226Z,6.94
2023-03-01T17:11:26.585Z,6.90
2023-03-01T17:14:12.175Z,6.79
2023-03-01T17:16:57.768Z,6.68
2023-03-01T17:19:44.605Z,6.58
2023-03-01T17:22:29.914Z,6.37
2023-03-01T17:25:16.011Z,6.28
2023-03-01T17:28:01.725Z,6.14
2023-03-01T17:30:48.100Z,6.07
2023-03-01T17:33:33.644Z,6.00
2023-03-01T17:36:19.400Z,5.91
2023-03-01T17:39:04.882Z,5.87
2023-03-01T17:41:50.217Z,5.81
2023-03-01T17:44:35.469Z,5.78
2023-03-01T17:47:20.761Z,5.74
2023-03-01T17:50:08.299Z,5.72
2023-03-01T17:52:53.899Z,5.72
2023-03-01T17:55:41.664Z,5.72
2023-03-01T17:58:27.497Z,5.73
2023-03-01T18:01:15.929Z,5.72
2023-03-01T18:04:01.514Z,5.69
2023-03-01T18:06:47.014Z,5.69
2023-03-01T18:09:32.609Z,5.69
2023-03-01T18:12:18.216Z,5.71
2023-03-01T18:15:04.699Z,5.71
2023-03-01T18:17:50.278Z,5.65
2023-03-01T18:20:35.831Z,5.63
2023-03-01T18:23:21.298Z,5.62
2023-03-01T18:26:12.699Z,5.64
2023-03-01T18:29:01.199Z,5.63
2023-03-01T18:31:47.144Z,5.65
2023-03-01T18:34:33.222Z,5.72
2023-03-01T18:37:18.489Z,5.78
2023-03-01T18:40:04.773Z,5.80
2023-03-01T18:42:50.218Z,5.84
2023-03-01T18:45:35.617Z,5.88
2023-03-01T18:48:21.174Z,5.95
2023-03-01T18:51:16.300Z,5.99
2023-03-01T18:54:02.102Z,6.04
2023-03-01T18:56:47.394Z,6.10
2023-03-01T18:59:32.897Z,6.11
2023-03-01T19:02:18.699Z,6.13
2023-03-01T19:05:04.147Z,6.13
2023-03-01T19:07:49.985Z,6.12
2023-03-01T19:10:35.706Z,6.13
2023-03-01T19:13:21.007Z,6.14
2023-03-01T19:16:12.388Z,6.14
2023-03-01T19:19:00.463Z,6.17
2023-03-01T19:21:56.000Z,6.16
2023-03-01T19:24:48.427Z,6.15
2023-03-01T19:27:34.006Z,6.14
2023-03-01T19:30:19.687Z,6.14
2023-03-01T19:33:05.715Z,6.14
2023-03-01T19:35:51.577Z,6.13
2023-03-01T19:38:38.276Z,6.14
2023-03-01T19:41:23.848Z,6.13
2023-03-01T19:44:10.359Z,6.14
2023-03-01T19:46:59.774Z,6.18
2023-03-01T19:49:45.357Z,6.21
2023-03-01T19:52:30.624Z,6.24
2023-03-01T19:55:16.107Z,6.28
2023-03-01T19:58:01.800Z,6.33
2023-03-01T20:00:47.743Z,6.36
2023-03-01T20:03:35.897Z,6.37
2023-03-01T20:06:21.931Z,6.40
2023-03-01T20:09:20.296Z,6.45
2023-03-01T20:12:06.801Z,6.43
2023-03-01T20:14:55.455Z,6.46
2023-03-01T20:17:40.871Z,6.49
2023-03-01T20:20:26.272Z,6.49
2023-03-01T20:23:11.596Z,6.50
2023-03-01T20:26:06.566Z,6.49
2023-03-01T20:28:54.760Z,6.47
2023-03-01T20:31:41.784Z,6.50
2023-03-01T20:34:27.548Z,6.49
2023-03-01T20:37:13.211Z,6.50
2023-03-01T20:39:59.028Z,6.47
2023-03-01T20:42:44.378Z,6.49
2023-03-01T20:45:29.914Z,6.49
2023-03-01T20:48:15.465Z,6.52
2023-03-01T20:51:05.328Z,6.53
2023-03-01T20:53:51.258Z,6.53
2023-03-01T20:56:37.932Z,6.51
2023-03-01T20:59:24.004Z,6.53
2023-03-01T21:02:11.564Z,6.55
2023-03-01T21:04:57.086Z,6.53
2023-03-01T21:07:43.111Z,6.54
2023-03-01T21:10:30.899Z,6.54
2023-03-01T21:13:16.318Z,6.55
2023-03-01T21:16:10.574Z,6.53
2023-03-01T21:18:56.067Z,6.53
2023-03-01T21:21:41.471Z,6.50
2023-03-01T21:24:26.929Z,6.47
2023-03-01T21:27:12.506Z,6.43
2023-03-01T21:29:58.077Z,6.40
2023-03-01T21:32:43.595Z,6.40
2023-03-01T21:35:29.295Z,6.40
2023-03-01T21:38:14.460Z,6.43
2023-03-01T21:41:23.017Z,6.45
2023-03-01T21:44:08.633Z,6.46
2023-03-01T21:46:54.717Z,6.47
2023-03-01T21:49:40.031Z,6.45
2023-03-01T21:52:25.282Z,6.41
2023-03-01T21:55:12.320Z,6.41
2023-03-01T21:57:58.072Z,6.38
2023-03-01T22:00:43.837Z,6.36
2023-03-01T22:03:29.106Z,6.33
2023-03-01T22:06:20.341Z,6.32
2023-03-01T22:09:12.035Z,6.27
2023-03-01T22:12:02.157Z,6.24
2023-03-01T22:14:47.995Z,6.19
2023-03-01T22:17:33.618Z,6.19
2023-03-01T22:20:19.632Z,6.14
2023-03-01T22:23:05.354Z,6.13
2023-03-01T22:25:51.033Z,6.10
2023-03-01T22:28:37.085Z,6.12
2023-03-01T22:31:23.608Z,6.13
2023-03-01T22:34:10.008Z,6.15
2023-03-01T22:36:56.633Z,6.18
2023-03-01T22:39:42.068Z,6.15
2023-03-01T22:42:27.970Z,6.17
2023-03-01T22:45:13.606Z,6.16
2023-03-01T22:48:04.969Z,6.16
2023-03-01T22:50:51.101Z,6.15
2023-03-01T22:53:36.499Z,6.13
2023-03-01T22:56:26.001Z,6.11
2023-03-01T22:59:15.199Z,6.09
2023-03-01T23:02:00.424Z,6.06
2023-03-01T23:04:48.486Z,6.06
2023-03-01T23:07:34.135Z,6.02
2023-03-01T23:10:20.679Z,5.98
2023-03-01T23:13:06.390Z,5.97
2023-03-01T23:15:57.129Z,5.95
2023-03-01T23:18:43.034Z,5.91
2023-03-01T23:21:28.448Z,5.88
2023-03-01T23:24:15.359Z,5.87
2023-03-01T23:27:02.172Z,5.86
2023-03-01T23:29:47.947Z,5.82
2023-03-01T23:32:40.579Z,5.79
2023-03-01T23:35:27.443Z,5.74
2023-03-01T23:38:13.119Z,5.72
2023-03-01T23:40:58.753Z,5.70
2023-03-01T23:43:48.912Z,5.65
2023-03-01T23:46:36.167Z,5.64
2023-03-01T23:49:23.281Z,5.61
2023-03-01T23:52:13.108Z,5.63
2023-03-01T23:54:58.587Z,5.58
2023-03-01T23:57:43.864Z,5.59
